createdAt,value
2022-09-12T00:00:00.739Z,101764.41
2022-09-12T00:03:04.956Z,101757.84
2022-09-12T00:06:22.958Z,101759.63
2022-09-12T00:09:27.894Z,101760.53
2022-09-12T00:12:32.301Z,101751.47
2022-09-12T00:15:44.463Z,101752.00
2022-09-12T00:18:49.491Z,101748.19
2022-09-12T00:21:54.091Z,101745.47
2022-09-12T00:24:58.381Z,101736.13
2022-09-12T00:28:02.969Z,101733.28
2022-09-12T00:31:13.937Z,101727.34
2022-09-12T00:34:18.246Z,101729.34
2022-09-12T00:37:22.722Z,101727.78
2022-09-12T00:40:28.541Z,101723.78
2022-09-12T00:43:43.106Z,101721.22
2022-09-12T00:46:52.195Z,101723.31
2022-09-12T00:50:09.479Z,101725.50
2022-09-12T00:53:13.928Z,101726.94
2022-09-12T00:56:19.856Z,101732.84
2022-09-12T00:59:46.809Z,101720.63
2022-09-12T01:03:05.546Z,101721.44
2022-09-12T01:06:21.885Z,101724.91
2022-09-12T01:09:26.764Z,101725.91
2022-09-12T01:12:33.504Z,101736.31
2022-09-12T01:15:39.665Z,101735.47
2022-09-12T01:19:16.835Z,101738.34
2022-09-12T01:22:43.127Z,101724.00
2022-09-12T01:25:59.291Z,101693.94
2022-09-12T01:29:40.308Z,101677.22
2022-09-12T01:32:51.898Z,101667.03
2022-09-12T01:36:00.829Z,101669.78
2022-09-12T01:39:31.250Z,101671.34
2022-09-12T01:43:18.360Z,101673.16
2022-09-12T01:46:49.421Z,101665.66
2022-09-12T01:50:19.381Z,101657.81
2022-09-12T01:53:31.296Z,101651.13
2022-09-12T01:56:40.049Z,101657.03
2022-09-12T01:59:49.265Z,101659.53
2022-09-12T02:03:12.523Z,101658.13
2022-09-12T02:06:47.391Z,101658.97
2022-09-12T02:10:05.961Z,101657.00
2022-09-12T02:13:36.183Z,101652.84
2022-09-12T02:16:51.202Z,101659.50
2022-09-12T02:20:14.644Z,101663.84
2022-09-12T02:23:31.632Z,101672.47
2022-09-12T02:26:47.498Z,101676.56
2022-09-12T02:29:52.302Z,101677.03
2022-09-12T02:33:12.179Z,101671.03
2022-09-12T02:37:00.680Z,101682.72
2022-09-12T02:40:06.992Z,101684.56
2022-09-12T02:43:11.485Z,101687.88
2022-09-12T02:46:28.944Z,101686.28
2022-09-12T02:49:34.358Z,101685.44
2022-09-12T02:52:40.260Z,101674.19
2022-09-12T02:55:44.807Z,101676.81
2022-09-12T02:58:49.432Z,101660.84
2022-09-12T03:02:03.318Z,101652.09
2022-09-12T03:05:31.387Z,101650.72
2022-09-12T03:08:58.195Z,101653.94
2022-09-12T03:12:08.931Z,101645.81
2022-09-12T03:15:43.236Z,101641.13
2022-09-12T03:19:01.119Z,101628.44
2022-09-12T03:22:20.983Z,101628.06
2022-09-12T03:25:35.873Z,101628.53
2022-09-12T03:28:42.467Z,101621.97
2022-09-12T03:31:54.648Z,101625.50
2022-09-12T03:34:58.918Z,101629.16
2022-09-12T03:38:03.605Z,101625.81
2022-09-12T03:41:08.312Z,101627.50
2022-09-12T03:44:12.777Z,101628.09
2022-09-12T03:47:17.158Z,101632.88
2022-09-12T03:50:21.425Z,101636.16
2022-09-12T03:53:25.917Z,101636.03
2022-09-12T03:56:30.904Z,101627.84
2022-09-12T03:59:35.892Z,101621.56
2022-09-12T04:02:40.579Z,101619.16
2022-09-12T04:05:44.853Z,101620.72
2022-09-12T04:08:55.211Z,101622.31
2022-09-12T04:11:59.520Z,101632.13
2022-09-12T04:15:04.103Z,101631.84
2022-09-12T04:18:08.311Z,101630.28
2022-09-12T04:21:17.174Z,101633.84
2022-09-12T04:24:21.593Z,101624.22
2022-09-12T04:27:25.875Z,101620.47
2022-09-12T04:30:30.250Z,101631.50
2022-09-12T04:33:36.355Z,101635.25
2022-09-12T04:36:40.453Z,101634.69
2022-09-12T04:39:44.778Z,101640.25
2022-09-12T04:42:49.211Z,101642.47
2022-09-12T04:45:53.370Z,101630.63
2022-09-12T04:48:58.025Z,101608.53
2022-09-12T04:52:02.690Z,101593.81
2022-09-12T04:55:08.595Z,101598.84
2022-09-12T04:58:12.594Z,101598.06
2022-09-12T05:01:23.175Z,101600.31
2022-09-12T05:04:27.971Z,101609.06
2022-09-12T05:07:32.558Z,101611.19
2022-09-12T05:10:36.657Z,101606.56
2022-09-12T05:13:41.645Z,101607.06
2022-09-12T05:16:49.403Z,101610.06
2022-09-12T05:19:54.042Z,101613.78
2022-09-12T05:22:59.725Z,101607.59
2022-09-12T05:26:06.065Z,101603.13
2022-09-12T05:29:11.542Z,101594.75
2022-09-12T05:32:16.217Z,101597.94
2022-09-12T05:35:20.705Z,101607.53
2022-09-12T05:38:25.225Z,101617.63
2022-09-12T05:41:33.594Z,101611.22
2022-09-12T05:44:37.868Z,101621.06
2022-09-12T05:47:43.843Z,101627.09
2022-09-12T05:50:48.142Z,101632.88
2022-09-12T05:53:58.310Z,101636.75
2022-09-12T05:57:02.647Z,101644.31
2022-09-12T06:00:09.835Z,101648.81
2022-09-12T06:03:14.733Z,101658.06
2022-09-12T06:06:22.384Z,101649.59
2022-09-12T06:09:28.070Z,101654.53
2022-09-12T06:12:32.778Z,101645.38
2022-09-12T06:15:37.778Z,101640.53
2022-09-12T06:18:47.246Z,101649.06
2022-09-12T06:21:53.782Z,101642.34
2022-09-12T06:24:59.043Z,101644.94
2022-09-12T06:28:04.465Z,101653.94
2022-09-12T06:31:18.931Z,101654.56
2022-09-12T06:34:23.683Z,101653.88
2022-09-12T06:37:28.448Z,101654.88
2022-09-12T06:40:33.983Z,101650.81
2022-09-12T06:43:40.687Z,101649.47
2022-09-12T06:46:45.364Z,101648.84
2022-09-12T06:49:50.923Z,101655.44
2022-09-12T06:52:55.558Z,101640.50
2022-09-12T06:56:03.179Z,101631.88
2022-09-12T06:59:07.397Z,101638.59
2022-09-12T07:02:12.507Z,101645.22
2022-09-12T07:05:17.352Z,101646.75
2022-09-12T07:08:21.873Z,101645.81
2022-09-12T07:11:31.638Z,101635.94
2022-09-12T07:14:36.164Z,101637.81
2022-09-12T07:17:40.452Z,101635.16
2022-09-12T07:20:44.601Z,101631.16
2022-09-12T07:23:49.491Z,101634.91
2022-09-12T07:26:53.695Z,101633.63
2022-09-12T07:29:58.459Z,101621.75
2022-09-12T07:33:02.524Z,101606.91
2022-09-12T07:36:13.046Z,101611.00
2022-09-12T07:39:17.648Z,101612.47
2022-09-12T07:42:21.957Z,101617.56
2022-09-12T07:45:26.937Z,101599.28
2022-09-12T07:48:31.450Z,101603.88
2022-09-12T07:51:35.922Z,101600.53
2022-09-12T07:54:40.193Z,101589.19
2022-09-12T07:57:44.475Z,101588.66
2022-09-12T08:00:49.372Z,101580.97
2022-09-12T08:03:58.061Z,101565.91
2022-09-12T08:07:02.493Z,101583.47
2022-09-12T08:10:07.202Z,101581.19
2022-09-12T08:13:11.571Z,101570.19
2022-09-12T08:16:18.159Z,101571.91
2022-09-12T08:19:22.809Z,101574.75
2022-09-12T08:22:27.251Z,101575.69
2022-09-12T08:25:31.631Z,101562.06
2022-09-12T08:28:37.031Z,101557.03
2022-09-12T08:31:42.518Z,101555.06
2022-09-12T08:34:46.558Z,101555.72
2022-09-12T08:37:50.927Z,101565.16
2022-09-12T08:41:21.822Z,101571.91
2022-09-12T08:45:17.464Z,101561.28
2022-09-12T08:48:21.792Z,101563.47
2022-09-12T08:51:27.792Z,101567.72
2022-09-12T08:54:34.090Z,101576.03
2022-09-12T08:57:38.775Z,101583.69
2022-09-12T09:00:47.932Z,101578.94
2022-09-12T09:04:11.066Z,101565.22
2022-09-12T09:07:50.653Z,101573.84
2022-09-12T09:11:08.703Z,101574.28
2022-09-12T09:14:34.871Z,101570.50
2022-09-12T09:17:53.011Z,101566.69
2022-09-12T09:21:00.439Z,101573.50
2022-09-12T09:24:14.732Z,101563.34
2022-09-12T09:27:48.130Z,101528.22
2022-09-12T09:30:52.857Z,101508.38
2022-09-12T09:33:57.472Z,101508.28
2022-09-12T09:37:05.818Z,101514.34
2022-09-12T09:40:27.084Z,101529.88
2022-09-12T09:43:31.287Z,101530.81
2022-09-12T09:46:35.996Z,101524.13
2022-09-12T09:49:42.242Z,101498.00
2022-09-12T09:52:50.449Z,101502.38
2022-09-12T09:55:56.812Z,101488.09
2022-09-12T09:59:18.011Z,101478.66
2022-09-12T10:02:26.863Z,101489.63
2022-09-12T10:05:45.787Z,101482.69
2022-09-12T10:08:51.087Z,101492.59
2022-09-12T10:11:57.324Z,101465.09
2022-09-12T10:15:18.622Z,101488.84
2022-09-12T10:18:42.295Z,101466.53
2022-09-12T10:21:52.821Z,101468.16
2022-09-12T10:25:00.590Z,101468.16
2022-09-12T10:28:05.469Z,101491.31
2022-09-12T10:31:15.623Z,101488.03
2022-09-12T10:34:38.188Z,101493.75
2022-09-12T10:38:05.980Z,101476.56
2022-09-12T10:41:12.089Z,101483.94
2022-09-12T10:44:26.142Z,101465.84
2022-09-12T10:47:32.026Z,101447.75
2022-09-12T10:50:41.401Z,101484.78
2022-09-12T10:53:46.828Z,101483.56
2022-09-12T10:57:23.381Z,101459.13
2022-09-12T11:00:30.410Z,101449.31
2022-09-12T11:04:03.393Z,101422.28
2022-09-12T11:07:35.195Z,101425.00
2022-09-12T11:11:11.621Z,101442.22
2022-09-12T11:14:25.184Z,101447.75
2022-09-12T11:17:47.850Z,101438.81
2022-09-12T11:21:30.171Z,101443.91
2022-09-12T11:25:11.978Z,101438.13
2022-09-12T11:28:47.709Z,101444.19
2022-09-12T11:32:43.307Z,101442.28
2022-09-12T11:35:55.261Z,101442.31
2022-09-12T11:39:03.706Z,101444.03
2022-09-12T11:42:20.102Z,101450.81
2022-09-12T11:45:35.693Z,101452.44
2022-09-12T11:49:02.910Z,101433.06
2022-09-12T11:52:21.902Z,101397.28
2022-09-12T11:55:32.796Z,101436.44
2022-09-12T11:58:40.657Z,101411.53
2022-09-12T12:01:48.722Z,101402.47
2022-09-12T12:05:08.181Z,101382.50
2022-09-12T12:08:14.582Z,101377.22
2022-09-12T12:11:38.562Z,101376.09
2022-09-12T12:14:47.970Z,101386.03
2022-09-12T12:18:23.663Z,101387.84
2022-09-12T12:21:47.347Z,101398.25
2022-09-12T12:25:12.355Z,101406.25
2022-09-12T12:28:43.120Z,101407.47
2022-09-12T12:31:59.935Z,101388.09
2022-09-12T12:36:01.673Z,101403.38
2022-09-12T12:39:33.800Z,101366.09
2022-09-12T12:42:37.926Z,101378.19
2022-09-12T12:45:48.809Z,101379.88
2022-09-12T12:49:19.135Z,101397.06
2022-09-12T12:52:24.979Z,101357.59
2022-09-12T12:55:41.868Z,101345.63
2022-09-12T12:58:46.392Z,101348.78
2022-09-12T13:01:56.182Z,101340.91
2022-09-12T13:05:06.491Z,101334.63
2022-09-12T13:08:17.152Z,101354.94
2022-09-12T13:11:37.152Z,101307.34
2022-09-12T13:14:47.153Z,101301.31
2022-09-12T13:17:52.033Z,101306.75
2022-09-12T13:21:18.441Z,101305.66
2022-09-12T13:24:23.755Z,101297.28
2022-09-12T13:27:27.693Z,101285.66
2022-09-12T13:30:42.552Z,101274.28
2022-09-12T13:33:55.110Z,101279.75
2022-09-12T13:37:28.724Z,101265.81
2022-09-12T13:41:15.677Z,101267.50
2022-09-12T13:44:21.728Z,101283.72
2022-09-12T13:47:31.547Z,101254.91
2022-09-12T13:50:55.119Z,101256.34
2022-09-12T13:54:05.431Z,101259.63
2022-09-12T13:57:33.811Z,101263.88
2022-09-12T14:00:38.510Z,101262.63
2022-09-12T14:04:13.157Z,101252.72
2022-09-12T14:07:23.640Z,101242.06
2022-09-12T14:10:35.957Z,101258.03
2022-09-12T14:13:40.714Z,101271.59
2022-09-12T14:16:45.328Z,101261.53
2022-09-12T14:19:50.024Z,101254.78
2022-09-12T14:22:54.678Z,101251.00
2022-09-12T14:26:04.155Z,101246.50
2022-09-12T14:29:09.104Z,101240.59
2022-09-12T14:32:24.461Z,101258.28
2022-09-12T14:35:30.027Z,101240.59
2022-09-12T14:38:44.144Z,101252.38
2022-09-12T14:41:51.159Z,101255.16
2022-09-12T14:45:15.322Z,101252.97
2022-09-12T14:48:20.219Z,101231.63
2022-09-12T14:51:32.281Z,101229.69
2022-09-12T14:54:37.814Z,101231.19
2022-09-12T14:57:44.472Z,101251.75
2022-09-12T15:01:03.867Z,101221.72
2022-09-12T15:04:08.450Z,101219.53
2022-09-12T15:07:56.390Z,101210.38
2022-09-12T15:11:01.214Z,101205.28
2022-09-12T15:14:15.527Z,101210.00
2022-09-12T15:17:19.707Z,101201.28
2022-09-12T15:20:24.941Z,101181.38
2022-09-12T15:23:58.669Z,101175.69
2022-09-12T15:27:09.132Z,101180.56
2022-09-12T15:30:14.211Z,101192.53
2022-09-12T15:33:22.847Z,101191.25
2022-09-12T15:36:28.902Z,101185.13
2022-09-12T15:39:33.625Z,101178.19
2022-09-12T15:42:38.083Z,101177.47
2022-09-12T15:45:43.680Z,101158.81
2022-09-12T15:48:48.195Z,101177.72
2022-09-12T15:51:52.976Z,101176.25
2022-09-12T15:54:57.325Z,101184.25
2022-09-12T15:58:06.854Z,101163.44
2022-09-12T16:01:17.608Z,101171.19
2022-09-12T16:04:25.671Z,101187.19
2022-09-12T16:07:30.069Z,101192.16
2022-09-12T16:10:35.679Z,101217.22
2022-09-12T16:13:39.965Z,101214.44
2022-09-12T16:16:51.068Z,101217.34
2022-09-12T16:19:55.670Z,101213.06
2022-09-12T16:22:59.688Z,101190.94
2022-09-12T16:26:06.313Z,101179.97
2022-09-12T16:29:14.371Z,101170.28
2022-09-12T16:32:18.864Z,101157.94
2022-09-12T16:35:23.255Z,101172.44
2022-09-12T16:38:28.006Z,101156.97
2022-09-12T16:41:32.412Z,101142.56
2022-09-12T16:44:36.804Z,101129.03
2022-09-12T16:47:41.101Z,101137.63
2022-09-12T16:50:55.451Z,101143.91
2022-09-12T16:54:00.434Z,101137.50
2022-09-12T16:57:06.452Z,101134.13
2022-09-12T17:00:11.540Z,101155.66
2022-09-12T17:03:16.988Z,101146.31
2022-09-12T17:06:21.987Z,101120.31
2022-09-12T17:09:28.170Z,101116.34
2022-09-12T17:12:32.909Z,101125.91
2022-09-12T17:15:38.608Z,101116.22
2022-09-12T17:18:43.225Z,101115.75
2022-09-12T17:21:49.951Z,101116.81
2022-09-12T17:24:54.440Z,101120.72
2022-09-12T17:27:58.758Z,101126.50
2022-09-12T17:31:07.194Z,101105.22
2022-09-12T17:34:16.375Z,101106.91
2022-09-12T17:37:21.810Z,101096.25
2022-09-12T17:40:48.755Z,101110.91
2022-09-12T17:43:55.621Z,101093.59
2022-09-12T17:47:00.439Z,101084.44
2022-09-12T17:50:30.451Z,101087.81
2022-09-12T17:53:30.091Z,101104.63
2022-09-12T17:56:37.046Z,101102.91
2022-09-12T17:59:41.571Z,101087.19
2022-09-12T18:02:46.751Z,101072.34
2022-09-12T18:05:56.430Z,101059.78
2022-09-12T18:09:08.027Z,101057.47
2022-09-12T18:12:12.472Z,101035.00
2022-09-12T18:15:16.780Z,101034.63
2022-09-12T18:18:22.690Z,101047.31
2022-09-12T18:21:28.902Z,101034.16
2022-09-12T18:24:34.072Z,101032.84
2022-09-12T18:27:38.497Z,101046.50
2022-09-12T18:30:43.168Z,101037.53
2022-09-12T18:33:48.312Z,101028.84
2022-09-12T18:36:54.887Z,101035.13
2022-09-12T18:39:59.033Z,101034.88
2022-09-12T18:43:03.683Z,101019.56
2022-09-12T18:46:15.509Z,101025.69
2022-09-12T18:49:20.207Z,101011.34
2022-09-12T18:52:24.730Z,101003.97
2022-09-12T18:55:31.857Z,101009.28
2022-09-12T18:58:38.862Z,100997.66
2022-09-12T19:01:43.705Z,100991.63
2022-09-12T19:04:48.435Z,100985.94
2022-09-12T19:07:54.237Z,100997.66
2022-09-12T19:10:58.666Z,101001.53
2022-09-12T19:14:03.456Z,101005.03
2022-09-12T19:17:09.435Z,101007.41
2022-09-12T19:20:14.372Z,100999.44
2022-09-12T19:23:19.239Z,100993.75
2022-09-12T19:26:23.803Z,101009.44
2022-09-12T19:29:28.020Z,101004.22
2022-09-12T19:32:32.231Z,100993.50
2022-09-12T19:35:37.158Z,101000.03
2022-09-12T19:38:41.637Z,100995.88
2022-09-12T19:41:46.267Z,100983.22
2022-09-12T19:44:55.621Z,100986.25
2022-09-12T19:48:00.989Z,100981.44
2022-09-12T19:51:06.014Z,100993.25
2022-09-12T19:54:10.389Z,100995.31
2022-09-12T19:57:14.870Z,100985.75
2022-09-12T20:00:19.598Z,100973.47
2022-09-12T20:03:24.283Z,100963.06
2022-09-12T20:06:28.846Z,100954.50
2022-09-12T20:09:33.592Z,100930.00
2022-09-12T20:12:37.699Z,100926.16
2022-09-12T20:15:45.430Z,100912.13
2022-09-12T20:19:01.805Z,100908.28
2022-09-12T20:22:06.668Z,100902.13
2022-09-12T20:25:11.047Z,100892.34
2022-09-12T20:28:15.570Z,100886.78
2022-09-12T20:31:20.258Z,100882.78
2022-09-12T20:34:24.685Z,100878.69
2022-09-12T20:37:30.237Z,100866.97
2022-09-12T20:40:34.468Z,100863.94
2022-09-12T20:43:39.752Z,100852.25
2022-09-12T20:46:44.233Z,100845.47
2022-09-12T20:49:48.503Z,100839.66
2022-09-12T20:52:53.018Z,100835.06
2022-09-12T20:56:00.097Z,100829.53
2022-09-12T20:59:05.489Z,100827.88
2022-09-12T21:02:15.377Z,100828.69
2022-09-12T21:05:19.733Z,100816.47
2022-09-12T21:08:24.146Z,100811.94
2022-09-12T21:11:29.239Z,100801.50
2022-09-12T21:14:33.874Z,100801.63
2022-09-12T21:17:38.163Z,100806.09
2022-09-12T21:20:42.508Z,100794.16
2022-09-12T21:23:47.101Z,100782.91
2022-09-12T21:26:51.187Z,100782.69
2022-09-12T21:29:55.989Z,100787.25
2022-09-12T21:33:00.421Z,100785.34
2022-09-12T21:36:06.621Z,100778.34
2022-09-12T21:39:11.272Z,100782.91
2022-09-12T21:42:15.510Z,100783.16
2022-09-12T21:45:20.113Z,100785.09
2022-09-12T21:48:24.676Z,100784.81
2022-09-12T21:51:28.998Z,100769.88
2022-09-12T21:54:35.173Z,100772.53
2022-09-12T21:57:39.441Z,100769.00
2022-09-12T22:00:44.608Z,100772.66
2022-09-12T22:03:49.566Z,100759.50
2022-09-12T22:06:53.848Z,100751.78
2022-09-12T22:09:58.255Z,100750.56
2022-09-12T22:13:03.137Z,100749.84
2022-09-12T22:16:07.863Z,100748.16
2022-09-12T22:19:12.954Z,100744.75
2022-09-12T22:22:35.676Z,100737.66
2022-09-12T22:25:40.617Z,100734.03
2022-09-12T22:28:47.491Z,100728.81
2022-09-12T22:31:53.629Z,100724.50
2022-09-12T22:34:58.951Z,100724.75
2022-09-12T22:38:03.417Z,100723.19
2022-09-12T22:41:11.663Z,100738.28
2022-09-12T22:44:17.780Z,100759.19
2022-09-12T22:47:22.198Z,100793.59
2022-09-12T22:50:26.451Z,100820.41
2022-09-12T22:53:30.840Z,100838.63
2022-09-12T22:56:35.455Z,100848.75
2022-09-12T22:59:39.953Z,100842.91
2022-09-12T23:02:44.244Z,100852.50
2022-09-12T23:05:49.035Z,100852.97
2022-09-12T23:08:53.788Z,100848.13
2022-09-12T23:11:58.907Z,100855.34
2022-09-12T23:15:04.000Z,100844.22
2022-09-12T23:18:08.499Z,100842.66
2022-09-12T23:21:15.789Z,100834.50
2022-09-12T23:24:20.166Z,100818.31
2022-09-12T23:27:28.223Z,100822.34
2022-09-12T23:30:32.732Z,100817.16
2022-09-12T23:33:36.842Z,100822.69
2022-09-12T23:36:41.380Z,100817.59
2022-09-12T23:39:46.069Z,100818.22
2022-09-12T23:42:50.255Z,100829.91
2022-09-12T23:45:54.547Z,100843.63
2022-09-12T23:48:59.133Z,100850.81
2022-09-12T23:52:03.875Z,100863.16
2022-09-12T23:55:09.100Z,100863.22
2022-09-12T23:58:14.065Z,100862.06
